createdAt,value
2022-11-28T00:01:38.821Z,10.50
2022-11-28T00:04:09.522Z,10.60
2022-11-28T00:06:39.258Z,10.60
2022-11-28T00:09:08.004Z,10.60
2022-11-28T00:11:37.126Z,10.60
2022-11-28T00:14:05.801Z,10.60
2022-11-28T00:16:34.309Z,10.60
2022-11-28T00:19:03.326Z,10.70
2022-11-28T00:21:38.575Z,10.80
2022-11-28T00:24:08.640Z,10.70
2022-11-28T00:26:39.326Z,10.70
2022-11-28T00:29:08.639Z,10.60
2022-11-28T00:31:42.522Z,10.60
2022-11-28T00:34:12.522Z,10.60
2022-11-28T00:36:44.062Z,10.60
2022-11-28T00:39:12.485Z,10.60
2022-11-28T00:41:40.917Z,10.60
2022-11-28T00:44:09.382Z,10.50
2022-11-28T00:46:37.742Z,10.50
2022-11-28T00:49:06.085Z,10.50
2022-11-28T00:51:35.425Z,10.50
2022-11-28T00:54:06.838Z,10.40
2022-11-28T00:56:36.376Z,10.40
2022-11-28T00:59:05.739Z,10.40
2022-11-28T01:01:35.515Z,10.40
2022-11-28T01:04:06.768Z,10.40
2022-11-28T01:06:37.270Z,10.40
2022-11-28T01:09:09.587Z,10.40
2022-11-28T01:11:39.637Z,10.40
2022-11-28T01:14:08.684Z,10.40
2022-11-28T01:16:37.141Z,10.40
2022-11-28T01:19:05.817Z,10.50
2022-11-28T01:21:37.127Z,10.50
2022-11-28T01:24:07.198Z,10.60
2022-11-28T01:26:35.737Z,10.70
2022-11-28T01:29:04.111Z,10.60
2022-11-28T01:31:32.613Z,10.60
2022-11-28T01:34:01.397Z,10.60
2022-11-28T01:36:30.506Z,10.60
2022-11-28T01:38:59.056Z,10.50
2022-11-28T01:41:29.711Z,10.50
2022-11-28T01:44:10.205Z,10.60
2022-11-28T01:46:38.669Z,10.50
2022-11-28T01:49:14.319Z,10.50
2022-11-28T01:51:49.063Z,10.50
2022-11-28T01:54:20.001Z,10.50
2022-11-28T01:56:54.006Z,10.50
2022-11-28T01:59:28.796Z,10.60
2022-11-28T02:01:59.671Z,10.70
2022-11-28T02:04:29.080Z,10.60
2022-11-28T02:06:57.490Z,10.60
2022-11-28T02:09:25.734Z,10.60
2022-11-28T02:12:15.776Z,10.50
2022-11-28T02:15:14.923Z,10.50
2022-11-28T02:17:57.817Z,10.50
2022-11-28T02:20:56.958Z,10.50
2022-11-28T02:23:33.624Z,10.60
2022-11-28T02:26:20.522Z,10.60
2022-11-28T02:29:25.810Z,10.50
2022-11-28T02:32:11.133Z,10.60
2022-11-28T02:34:47.232Z,10.60
2022-11-28T02:37:23.542Z,10.50
2022-11-28T02:40:02.072Z,10.60
2022-11-28T02:42:38.635Z,10.60
2022-11-28T02:45:12.092Z,10.70
2022-11-28T02:47:50.067Z,10.70
2022-11-28T02:50:22.422Z,10.60
2022-11-28T02:52:54.318Z,10.60
2022-11-28T02:55:23.454Z,10.70
2022-11-28T02:57:53.471Z,11.40
2022-11-28T03:00:32.856Z,11.10
2022-11-28T03:03:21.372Z,11.10
2022-11-28T03:05:58.966Z,11.10
2022-11-28T03:08:38.603Z,10.90
2022-11-28T03:11:15.594Z,10.80
2022-11-28T03:13:55.744Z,10.80
2022-11-28T03:16:29.065Z,10.80
2022-11-28T03:19:07.283Z,10.80
2022-11-28T03:21:41.807Z,10.80
2022-11-28T03:24:15.409Z,10.80
2022-11-28T03:26:53.592Z,10.80
2022-11-28T03:29:25.735Z,10.80
2022-11-28T03:31:59.054Z,11.20
2022-11-28T03:34:38.502Z,11.00
2022-11-28T03:37:12.580Z,11.10
2022-11-28T03:39:43.894Z,11.00
2022-11-28T03:42:14.333Z,11.00
2022-11-28T03:44:47.157Z,11.00
2022-11-28T03:47:15.636Z,11.10
2022-11-28T03:49:53.113Z,10.90
2022-11-28T03:52:26.534Z,10.90
2022-11-28T03:54:58.169Z,11.00
2022-11-28T03:57:34.294Z,11.00
2022-11-28T04:00:07.346Z,11.00
2022-11-28T04:02:41.169Z,10.90
2022-11-28T04:05:18.490Z,10.80
2022-11-28T04:07:49.586Z,10.70
2022-11-28T04:10:22.248Z,10.80
2022-11-28T04:12:57.660Z,10.70
2022-11-28T04:15:33.940Z,10.70
2022-11-28T04:18:07.609Z,10.70
2022-11-28T04:20:43.187Z,10.60
2022-11-28T04:23:18.112Z,10.60
2022-11-28T04:25:53.920Z,10.60
2022-11-28T04:28:26.763Z,10.60
2022-11-28T04:30:58.647Z,10.60
2022-11-28T04:33:30.316Z,10.50
2022-11-28T04:36:01.363Z,10.50
2022-11-28T04:38:32.283Z,10.60
2022-11-28T04:41:06.567Z,10.70
2022-11-28T04:43:39.279Z,10.60
2022-11-28T04:46:12.183Z,10.60
2022-11-28T04:48:40.601Z,10.50
2022-11-28T04:51:19.905Z,10.60
2022-11-28T04:53:55.486Z,10.50
2022-11-28T04:56:32.469Z,10.60
2022-11-28T04:59:01.593Z,10.50
2022-11-28T05:01:32.485Z,10.50
2022-11-28T05:04:01.228Z,10.50
2022-11-28T05:06:32.171Z,10.40
2022-11-28T05:09:00.859Z,10.50
2022-11-28T05:11:29.818Z,10.50
2022-11-28T05:13:58.264Z,10.40
2022-11-28T05:16:26.640Z,10.50
2022-11-28T05:18:57.372Z,10.60
2022-11-28T05:21:29.091Z,10.50
2022-11-28T05:23:58.621Z,10.40
2022-11-28T05:26:27.155Z,10.40
2022-11-28T05:28:57.080Z,10.40
2022-11-28T05:31:25.945Z,10.40
2022-11-28T05:33:56.175Z,10.40
2022-11-28T05:36:24.802Z,10.40
2022-11-28T05:38:53.032Z,10.50
2022-11-28T05:41:23.994Z,10.40
2022-11-28T05:43:52.409Z,10.40
2022-11-28T05:46:21.267Z,10.50
2022-11-28T05:48:49.531Z,10.60
2022-11-28T05:51:20.316Z,10.50
2022-11-28T05:53:49.753Z,10.50
2022-11-28T05:56:24.005Z,10.50
2022-11-28T05:58:53.895Z,10.60
2022-11-28T06:01:27.435Z,10.50
2022-11-28T06:04:00.713Z,10.50
2022-11-28T06:06:31.119Z,10.40
2022-11-28T06:08:59.568Z,10.50
2022-11-28T06:11:30.582Z,10.50
2022-11-28T06:13:59.117Z,10.40
2022-11-28T06:16:28.686Z,10.30
2022-11-28T06:18:58.573Z,10.40
2022-11-28T06:21:27.946Z,10.30
2022-11-28T06:23:57.522Z,10.20
2022-11-28T06:26:27.228Z,10.30
2022-11-28T06:28:56.852Z,10.30
2022-11-28T06:31:28.216Z,10.20
2022-11-28T06:33:56.706Z,10.20
2022-11-28T06:36:26.526Z,10.20
2022-11-28T06:38:55.449Z,10.30
2022-11-28T06:41:23.994Z,10.10
2022-11-28T06:43:52.416Z,10.10
2022-11-28T06:46:22.962Z,10.00
2022-11-28T06:48:54.340Z,10.00
2022-11-28T06:51:22.870Z,9.90
2022-11-28T06:53:51.321Z,9.90
2022-11-28T06:56:20.710Z,9.90
2022-11-28T06:58:54.498Z,9.90
2022-11-28T07:01:25.527Z,9.80
2022-11-28T07:03:55.575Z,9.80
2022-11-28T07:06:26.082Z,9.80
2022-11-28T07:08:54.749Z,9.80
2022-11-28T07:11:24.555Z,9.80
2022-11-28T07:13:53.337Z,9.80
2022-11-28T07:16:24.528Z,9.60
2022-11-28T07:18:53.455Z,9.60
2022-11-28T07:21:22.399Z,9.60
2022-11-28T07:23:51.046Z,9.50
2022-11-28T07:26:21.323Z,9.50
2022-11-28T07:28:51.314Z,9.60
2022-11-28T07:31:21.901Z,9.60
2022-11-28T07:33:52.847Z,9.60
2022-11-28T07:36:22.189Z,9.70
2022-11-28T07:38:52.036Z,9.60
2022-11-28T07:41:24.965Z,9.60
2022-11-28T07:43:56.478Z,9.60
2022-11-28T07:46:25.757Z,9.50
2022-11-28T07:48:55.695Z,9.50
2022-11-28T07:51:25.491Z,9.50
2022-11-28T07:53:54.272Z,9.50
2022-11-28T07:56:23.981Z,9.50
2022-11-28T07:58:52.676Z,9.50
2022-11-28T08:01:22.378Z,9.50
2022-11-28T08:03:51.674Z,9.60
2022-11-28T08:06:23.107Z,9.60
2022-11-28T08:08:51.793Z,9.70
2022-11-28T08:11:21.195Z,9.80
2022-11-28T08:13:51.039Z,9.70
2022-11-28T08:16:22.694Z,9.70
2022-11-28T08:18:51.953Z,9.60
2022-11-28T08:21:23.569Z,9.60
2022-11-28T08:23:53.166Z,9.60
2022-11-28T08:26:28.782Z,9.60
2022-11-28T08:28:59.070Z,9.60
2022-11-28T08:31:29.402Z,9.60
2022-11-28T08:33:59.838Z,9.60
2022-11-28T08:36:29.783Z,9.70
2022-11-28T08:39:09.855Z,9.80
2022-11-28T08:41:46.629Z,10.00
2022-11-28T08:44:15.137Z,10.00
2022-11-28T08:46:43.634Z,10.00
2022-11-28T08:49:12.052Z,10.50
2022-11-28T08:51:41.563Z,10.20
2022-11-28T08:54:10.198Z,10.20
2022-11-28T08:56:38.561Z,9.90
2022-11-28T08:59:10.242Z,9.70
2022-11-28T09:01:39.632Z,9.80
2022-11-28T09:04:08.455Z,10.10
2022-11-28T09:06:39.160Z,10.00
2022-11-28T09:09:10.576Z,9.80
2022-11-28T09:11:41.149Z,9.70
2022-11-28T09:14:10.132Z,9.70
2022-11-28T09:16:39.731Z,9.80
2022-11-28T09:19:10.882Z,9.80
2022-11-28T09:21:39.214Z,9.90
2022-11-28T09:24:10.081Z,9.80
2022-11-28T09:26:38.434Z,9.80
2022-11-28T09:29:06.787Z,9.80
2022-11-28T09:31:35.076Z,9.90
2022-11-28T09:34:04.850Z,9.90
2022-11-28T09:36:33.662Z,9.90
2022-11-28T09:39:02.521Z,10.10
2022-11-28T09:41:49.189Z,10.30
2022-11-28T09:44:23.961Z,10.30
2022-11-28T09:46:54.761Z,10.20
2022-11-28T09:49:40.594Z,10.20
2022-11-28T09:52:22.042Z,10.20
2022-11-28T09:54:58.614Z,10.20
2022-11-28T09:57:34.615Z,10.30
2022-11-28T10:00:03.263Z,10.30
2022-11-28T10:02:36.917Z,10.30
2022-11-28T10:05:15.110Z,10.30
2022-11-28T10:07:55.494Z,10.50
2022-11-28T10:10:34.620Z,10.40
2022-11-28T10:13:15.039Z,10.40
2022-11-28T10:15:53.708Z,10.40
2022-11-28T10:18:34.134Z,10.50
2022-11-28T10:21:05.976Z,10.50
2022-11-28T10:23:39.686Z,10.70
2022-11-28T10:26:13.029Z,10.80
2022-11-28T10:28:45.280Z,10.60
2022-11-28T10:31:18.397Z,10.60
2022-11-28T10:33:52.129Z,10.70
2022-11-28T10:36:25.941Z,10.70
2022-11-28T10:38:54.657Z,10.60
2022-11-28T10:41:28.838Z,10.80
2022-11-28T10:44:06.488Z,10.60
2022-11-28T10:46:51.289Z,10.60
2022-11-28T10:49:30.187Z,10.70
2022-11-28T10:52:08.702Z,10.70
2022-11-28T10:54:57.362Z,10.70
2022-11-28T10:57:31.646Z,10.70
2022-11-28T11:00:12.233Z,10.90
2022-11-28T11:02:45.400Z,10.40
2022-11-28T11:05:16.259Z,10.30
2022-11-28T11:07:50.680Z,10.20
2022-11-28T11:10:22.081Z,10.30
2022-11-28T11:12:53.295Z,10.30
2022-11-28T11:15:25.997Z,10.30
2022-11-28T11:17:54.352Z,10.30
2022-11-28T11:20:38.353Z,10.50
2022-11-28T11:23:19.570Z,10.70
2022-11-28T11:25:54.217Z,10.80
2022-11-28T11:28:39.276Z,11.00
2022-11-28T11:31:21.743Z,11.00
2022-11-28T11:33:53.119Z,11.20
2022-11-28T11:36:24.790Z,11.20
2022-11-28T11:38:53.508Z,11.20
2022-11-28T11:41:30.093Z,11.20
2022-11-28T11:44:19.009Z,11.30
2022-11-28T11:46:54.210Z,11.40
2022-11-28T11:49:30.797Z,11.50
2022-11-28T11:52:01.142Z,11.50
2022-11-28T11:54:29.656Z,11.70
2022-11-28T11:57:24.976Z,11.50
2022-11-28T11:59:50.842Z,11.50
2022-11-28T12:02:26.035Z,11.50
2022-11-28T12:05:02.615Z,11.60
2022-11-28T12:07:38.096Z,11.50
2022-11-28T12:10:10.985Z,11.70
2022-11-28T12:12:42.710Z,11.70
2022-11-28T12:15:19.165Z,11.60
2022-11-28T12:18:00.580Z,11.90
2022-11-28T12:20:43.246Z,11.70
2022-11-28T12:23:27.680Z,11.70
2022-11-28T12:26:00.619Z,11.60
2022-11-28T12:28:41.040Z,11.60
2022-11-28T12:31:18.650Z,11.50
2022-11-28T12:34:01.602Z,11.60
2022-11-28T12:36:35.020Z,11.60
2022-11-28T12:39:18.922Z,11.60
2022-11-28T12:42:16.038Z,11.60
2022-11-28T12:44:59.597Z,11.70
2022-11-28T12:47:40.581Z,11.70
2022-11-28T12:50:22.357Z,11.70
2022-11-28T12:52:56.676Z,11.60
2022-11-28T12:55:33.415Z,11.70
2022-11-28T12:58:08.945Z,11.70
2022-11-28T13:00:49.599Z,12.10
2022-11-28T13:03:30.384Z,11.90
2022-11-28T13:06:11.067Z,12.10
2022-11-28T13:08:58.773Z,12.10
2022-11-28T13:11:43.776Z,11.90
2022-11-28T13:14:22.042Z,11.90
2022-11-28T13:16:53.705Z,11.90
2022-11-28T13:19:33.639Z,11.90
2022-11-28T13:22:11.173Z,11.90
2022-11-28T13:24:44.774Z,11.90
2022-11-28T13:27:22.879Z,11.90
2022-11-28T13:30:00.037Z,11.80
2022-11-28T13:32:37.051Z,11.80
2022-11-28T13:35:06.348Z,11.80
2022-11-28T13:40:36.535Z,11.80
2022-11-28T13:43:13.041Z,11.80
2022-11-28T13:45:43.773Z,11.80
2022-11-28T13:51:38.541Z,11.70
2022-11-28T13:54:48.020Z,11.70
2022-11-28T13:57:23.788Z,11.70
2022-11-28T13:59:55.494Z,11.70
2022-11-28T14:02:32.693Z,11.70
2022-11-28T14:05:01.152Z,11.70
2022-11-28T14:07:32.975Z,11.70
2022-11-28T14:10:16.739Z,12.10
2022-11-28T14:12:56.765Z,11.90
2022-11-28T14:15:33.352Z,11.80
2022-11-28T14:18:47.777Z,11.80
2022-11-28T14:21:23.045Z,11.80
2022-11-28T14:23:59.259Z,11.80
2022-11-28T14:26:36.704Z,11.80
2022-11-28T14:29:09.175Z,11.80
2022-11-28T14:31:39.696Z,11.80
2022-11-28T14:34:12.007Z,11.80
2022-11-28T14:36:42.088Z,11.80
2022-11-28T14:39:32.423Z,11.90
2022-11-28T14:42:51.959Z,11.90
2022-11-28T14:45:47.045Z,11.80
2022-11-28T14:48:28.558Z,11.80
2022-11-28T14:51:01.618Z,11.80
2022-11-28T14:53:45.473Z,11.80
2022-11-28T14:56:27.514Z,11.70
2022-11-28T14:58:59.453Z,11.80
2022-11-28T15:01:50.593Z,11.80
2022-11-28T15:04:42.045Z,11.80
2022-11-28T15:07:25.433Z,12.20
2022-11-28T15:10:07.474Z,11.90
2022-11-28T15:12:51.486Z,11.90
2022-11-28T15:15:22.358Z,11.90
2022-11-28T15:17:54.342Z,11.80
2022-11-28T15:20:28.596Z,11.80
2022-11-28T15:22:56.986Z,11.80
2022-11-28T15:25:26.476Z,11.70
2022-11-28T15:27:55.647Z,11.70
2022-11-28T15:30:26.643Z,11.60
2022-11-28T15:33:01.430Z,11.70
2022-11-28T15:35:30.601Z,11.70
2022-11-28T15:37:59.732Z,11.70
2022-11-28T15:40:30.938Z,11.70
2022-11-28T15:43:00.756Z,11.70
2022-11-28T15:45:31.225Z,11.70
2022-11-28T15:48:00.926Z,11.70
2022-11-28T15:50:31.476Z,11.70
2022-11-28T15:53:01.809Z,11.70
2022-11-28T15:55:31.850Z,11.70
2022-11-28T15:58:14.063Z,11.50
2022-11-28T16:00:44.856Z,11.40
2022-11-28T16:03:20.188Z,11.30
2022-11-28T16:05:50.220Z,11.20
2022-11-28T16:08:23.289Z,11.10
2022-11-28T16:10:51.832Z,11.10
2022-11-28T16:13:24.941Z,11.10
2022-11-28T16:15:56.142Z,11.00
2022-11-28T16:18:28.143Z,10.90
2022-11-28T16:20:58.011Z,10.80
2022-11-28T16:23:30.432Z,10.80
2022-11-28T16:26:03.488Z,10.70
2022-11-28T16:28:33.960Z,10.70
2022-11-28T16:31:02.673Z,10.60
2022-11-28T16:33:42.289Z,10.50
2022-11-28T16:36:20.926Z,10.50
2022-11-28T16:38:52.053Z,10.40
2022-11-28T16:41:23.569Z,10.40
2022-11-28T16:43:55.283Z,10.40
2022-11-28T16:46:24.768Z,10.30
2022-11-28T16:48:58.693Z,10.30
2022-11-28T16:51:42.011Z,10.00
2022-11-28T16:54:31.155Z,9.80
2022-11-28T16:57:10.718Z,9.70
2022-11-28T16:59:39.336Z,9.60
2022-11-28T17:02:15.657Z,9.60
2022-11-28T17:04:45.698Z,9.50
2022-11-28T17:07:15.218Z,9.50
2022-11-28T17:09:44.638Z,9.40
2022-11-28T17:12:20.871Z,9.30
2022-11-28T17:14:49.313Z,9.30
2022-11-28T17:17:18.997Z,9.30
2022-11-28T17:19:48.578Z,9.30
2022-11-28T17:22:18.973Z,9.30
2022-11-28T17:24:48.481Z,9.30
2022-11-28T17:27:17.308Z,9.40
2022-11-28T17:29:46.103Z,9.50
2022-11-28T17:32:15.369Z,9.60
2022-11-28T17:34:44.039Z,9.70
2022-11-28T17:37:13.867Z,9.80
2022-11-28T17:40:02.592Z,9.90
2022-11-28T17:42:31.123Z,9.90
2022-11-28T17:44:59.551Z,9.80
2022-11-28T17:47:28.103Z,9.70
2022-11-28T17:49:56.666Z,9.70
2022-11-28T17:52:30.354Z,9.60
2022-11-28T17:55:07.023Z,9.70
2022-11-28T17:57:36.243Z,9.70
2022-11-28T18:00:06.551Z,9.70
2022-11-28T18:02:35.295Z,9.60
2022-11-28T18:05:03.893Z,9.60
2022-11-28T18:07:33.501Z,9.50
2022-11-28T18:10:02.136Z,9.50
2022-11-28T18:12:30.894Z,9.40
2022-11-28T18:15:00.970Z,9.40
2022-11-28T18:17:29.594Z,9.40
2022-11-28T18:19:58.060Z,9.30
2022-11-28T18:22:26.647Z,9.30
2022-11-28T18:24:56.309Z,9.20
2022-11-28T18:27:24.921Z,9.20
2022-11-28T18:29:53.468Z,9.20
2022-11-28T18:32:22.115Z,9.10
2022-11-28T18:34:50.682Z,9.10
2022-11-28T18:37:19.246Z,9.10
2022-11-28T18:39:47.623Z,9.10
2022-11-28T18:42:18.105Z,9.10
2022-11-28T18:44:46.411Z,9.10
2022-11-28T18:47:14.937Z,9.10
2022-11-28T18:49:43.749Z,9.00
2022-11-28T18:52:12.578Z,9.00
2022-11-28T18:54:41.583Z,9.00
2022-11-28T18:57:10.209Z,9.00
2022-11-28T18:59:39.955Z,9.00
2022-11-28T19:02:08.639Z,9.00
2022-11-28T19:04:37.140Z,9.00
2022-11-28T19:07:05.563Z,9.00
2022-11-28T19:09:33.861Z,9.00
2022-11-28T19:12:02.377Z,8.90
2022-11-28T19:14:30.970Z,8.90
2022-11-28T19:17:02.046Z,8.80
2022-11-28T19:19:30.446Z,8.80
2022-11-28T19:21:58.787Z,8.80
2022-11-28T19:24:27.250Z,8.80
2022-11-28T19:26:55.567Z,8.80
2022-11-28T19:29:24.018Z,8.70
2022-11-28T19:31:52.877Z,8.70
2022-11-28T19:34:22.654Z,8.70
2022-11-28T19:36:52.080Z,8.70
2022-11-28T19:39:22.156Z,8.70
2022-11-28T19:41:51.422Z,8.60
2022-11-28T19:44:20.916Z,8.60
2022-11-28T19:46:50.337Z,8.60
2022-11-28T19:49:20.533Z,8.60
2022-11-28T19:51:51.134Z,8.60
2022-11-28T19:54:20.656Z,8.50
2022-11-28T19:56:49.260Z,8.40
2022-11-28T19:59:18.391Z,8.30
2022-11-28T20:01:49.778Z,8.30
2022-11-28T20:04:19.409Z,8.20
2022-11-28T20:06:49.217Z,8.10
2022-11-28T20:09:17.533Z,8.10
2022-11-28T20:11:46.338Z,8.10
2022-11-28T20:14:16.941Z,8.00
2022-11-28T20:16:46.055Z,8.10
2022-11-28T20:19:15.066Z,8.00
2022-11-28T20:21:43.574Z,8.00
2022-11-28T20:24:13.514Z,8.10
2022-11-28T20:26:43.149Z,8.10
2022-11-28T20:29:14.713Z,8.10
2022-11-28T20:31:45.662Z,8.10
2022-11-28T20:34:15.481Z,8.20
2022-11-28T20:36:44.166Z,8.10
2022-11-28T20:39:14.521Z,8.10
2022-11-28T20:41:42.653Z,8.20
2022-11-28T20:44:11.882Z,8.10
2022-11-28T20:46:40.487Z,8.10
2022-11-28T20:49:08.850Z,8.10
2022-11-28T20:51:37.376Z,8.10
2022-11-28T20:54:07.690Z,8.10
2022-11-28T20:57:12.912Z,8.10
2022-11-28T20:59:28.693Z,8.10
2022-11-28T21:01:57.182Z,7.90
2022-11-28T21:04:25.661Z,7.90
2022-11-28T21:06:54.215Z,7.90
2022-11-28T21:09:22.460Z,7.90
2022-11-28T21:11:57.968Z,7.90
2022-11-28T21:14:27.907Z,7.90
2022-11-28T21:16:56.655Z,7.90
2022-11-28T21:19:25.212Z,7.90
2022-11-28T21:21:53.585Z,7.90
2022-11-28T21:24:22.036Z,7.80
2022-11-28T21:26:54.451Z,7.70
2022-11-28T21:29:24.429Z,7.60
2022-11-28T21:31:53.201Z,7.50
2022-11-28T21:34:22.523Z,7.50
2022-11-28T21:36:50.741Z,7.40
2022-11-28T21:39:20.757Z,7.30
2022-11-28T21:41:51.211Z,7.20
2022-11-28T21:44:20.940Z,7.20
2022-11-28T21:46:49.360Z,7.20
2022-11-28T21:49:17.588Z,7.20
2022-11-28T21:51:46.042Z,7.10
2022-11-28T21:54:14.715Z,7.10
2022-11-28T21:56:43.003Z,7.00
2022-11-28T21:59:11.530Z,7.10
2022-11-28T22:01:41.257Z,7.00
2022-11-28T22:04:11.113Z,7.00
2022-11-28T22:06:39.595Z,7.00
2022-11-28T22:09:09.819Z,6.90
2022-11-28T22:11:39.002Z,6.90
2022-11-28T22:14:07.649Z,6.90
2022-11-28T22:16:36.080Z,6.90
2022-11-28T22:19:05.783Z,6.90
2022-11-28T22:24:22.452Z,6.80
2022-11-28T22:26:51.162Z,6.80
2022-11-28T22:29:19.606Z,6.70
2022-11-28T22:31:48.043Z,6.70
2022-11-28T22:34:17.861Z,6.70
2022-11-28T22:36:46.191Z,6.70
2022-11-28T22:39:14.527Z,6.70
2022-11-28T22:41:42.878Z,6.70
2022-11-28T22:44:12.554Z,6.60
2022-11-28T22:46:40.939Z,6.60
2022-11-28T22:49:10.599Z,6.50
2022-11-28T22:51:40.993Z,6.60
2022-11-28T22:54:12.548Z,6.70
2022-11-28T22:56:41.161Z,6.50
2022-11-28T22:59:12.864Z,6.50
2022-11-28T23:01:41.732Z,6.40
2022-11-28T23:04:10.354Z,6.30
2022-11-28T23:06:39.986Z,6.40
2022-11-28T23:09:09.556Z,6.40
2022-11-28T23:11:39.606Z,6.30
2022-11-28T23:14:08.037Z,6.30
2022-11-28T23:16:37.390Z,6.40
2022-11-28T23:19:06.974Z,6.50
2022-11-28T23:21:37.187Z,6.40
2022-11-28T23:24:07.797Z,6.50
2022-11-28T23:26:36.277Z,6.60
2022-11-28T23:29:08.450Z,6.40
2022-11-28T23:31:39.848Z,6.40
2022-11-28T23:34:08.890Z,6.30
2022-11-28T23:36:42.521Z,6.40
2022-11-28T23:39:14.433Z,6.40
2022-11-28T23:41:43.167Z,6.20
2022-11-28T23:44:12.623Z,6.10
2022-11-28T23:46:42.029Z,6.10
2022-11-28T23:49:10.918Z,6.00
2022-11-28T23:51:41.034Z,6.00
2022-11-28T23:54:10.648Z,6.00
2022-11-28T23:56:41.785Z,6.00
2022-11-28T23:59:12.006Z,5.90
